sensor_id;sensor_type;location;lat;lon;timestamp;P1;durP1;ratioP1;P2;durP2;ratioP2
30147;SDS011;16960;49.404;8.248;2023-01-23T00:02:07;1.63;;;1.53;;
30147;SDS011;16960;49.404;8.248;2023-01-23T00:04:34;5.00;;;1.70;;
30147;SDS011;16960;49.404;8.248;2023-01-23T00:07:03;1.80;;;1.70;;
30147;SDS011;16960;49.404;8.248;2023-01-23T00:09:30;1.50;;;1.40;;
30147;SDS011;16960;49.404;8.248;2023-01-23T00:11:57;2.43;;;1.87;;
30147;SDS011;16960;49.404;8.248;2023-01-23T00:14:24;1.93;;;1.50;;
30147;SDS011;16960;49.404;8.248;2023-01-23T00:16:51;2.23;;;1.50;;
30147;SDS011;16960;49.404;8.248;2023-01-23T00:19:18;2.00;;;1.80;;
30147;SDS011;16960;49.404;8.248;2023-01-23T00:21:45;1.70;;;1.60;;
30147;SDS011;16960;49.404;8.248;2023-01-23T00:24:13;1.57;;;1.47;;
30147;SDS011;16960;49.404;8.248;2023-01-23T00:26:40;1.73;;;1.57;;
30147;SDS011;16960;49.404;8.248;2023-01-23T00:29:07;1.50;;;1.40;;
30147;SDS011;16960;49.404;8.248;2023-01-23T00:31:35;1.60;;;1.50;;
30147;SDS011;16960;49.404;8.248;2023-01-23T00:34:04;1.73;;;1.63;;
30147;SDS011;16960;49.404;8.248;2023-01-23T00:36:32;1.80;;;1.63;;
30147;SDS011;16960;49.404;8.248;2023-01-23T00:39:00;1.93;;;1.70;;
30147;SDS011;16960;49.404;8.248;2023-01-23T00:41:30;1.50;;;1.40;;
30147;SDS011;16960;49.404;8.248;2023-01-23T00:43:56;1.57;;;1.47;;
30147;SDS011;16960;49.404;8.248;2023-01-23T00:46:23;1.63;;;1.53;;
30147;SDS011;16960;49.404;8.248;2023-01-23T00:48:50;1.90;;;1.80;;
30147;SDS011;16960;49.404;8.248;2023-01-23T00:51:17;1.97;;;1.60;;
30147;SDS011;16960;49.404;8.248;2023-01-23T00:53:45;1.80;;;1.57;;
30147;SDS011;16960;49.404;8.248;2023-01-23T00:56:12;1.50;;;1.40;;
30147;SDS011;16960;49.404;8.248;2023-01-23T00:58:40;1.90;;;1.80;;
30147;SDS011;16960;49.404;8.248;2023-01-23T01:01:07;1.83;;;1.70;;
30147;SDS011;16960;49.404;8.248;2023-01-23T01:03:34;2.03;;;1.83;;
30147;SDS011;16960;49.404;8.248;2023-01-23T01:06:02;2.27;;;1.90;;
30147;SDS011;16960;49.404;8.248;2023-01-23T01:08:29;1.80;;;1.70;;
30147;SDS011;16960;49.404;8.248;2023-01-23T01:10:56;2.07;;;1.60;;
30147;SDS011;16960;49.404;8.248;2023-01-23T01:13:23;1.80;;;1.70;;
30147;SDS011;16960;49.404;8.248;2023-01-23T01:15:52;1.40;;;1.30;;
30147;SDS011;16960;49.404;8.248;2023-01-23T01:18:20;1.73;;;1.63;;
30147;SDS011;16960;49.404;8.248;2023-01-23T01:20:48;1.60;;;1.50;;
30147;SDS011;16960;49.404;8.248;2023-01-23T01:23:15;1.87;;;1.77;;
30147;SDS011;16960;49.404;8.248;2023-01-23T01:25:43;1.77;;;1.67;;
30147;SDS011;16960;49.404;8.248;2023-01-23T01:28:09;1.77;;;1.67;;
30147;SDS011;16960;49.404;8.248;2023-01-23T01:30:36;1.73;;;1.63;;
30147;SDS011;16960;49.404;8.248;2023-01-23T01:33:05;1.70;;;1.60;;
30147;SDS011;16960;49.404;8.248;2023-01-23T01:35:32;1.67;;;1.57;;
30147;SDS011;16960;49.404;8.248;2023-01-23T01:37:59;1.60;;;1.50;;
30147;SDS011;16960;49.404;8.248;2023-01-23T01:40:27;1.90;;;1.80;;
30147;SDS011;16960;49.404;8.248;2023-01-23T01:42:59;1.83;;;1.73;;
30147;SDS011;16960;49.404;8.248;2023-01-23T01:48:32;1.90;;;1.80;;
30147;SDS011;16960;49.404;8.248;2023-01-23T01:51:06;2.87;;;1.90;;
30147;SDS011;16960;49.404;8.248;2023-01-23T01:53:38;2.30;;;2.10;;
30147;SDS011;16960;49.404;8.248;2023-01-23T01:56:06;1.60;;;1.50;;
30147;SDS011;16960;49.404;8.248;2023-01-23T01:58:37;1.57;;;1.47;;
30147;SDS011;16960;49.404;8.248;2023-01-23T02:01:06;1.60;;;1.50;;
30147;SDS011;16960;49.404;8.248;2023-01-23T02:03:35;2.00;;;1.90;;
30147;SDS011;16960;49.404;8.248;2023-01-23T02:06:02;1.70;;;1.60;;
30147;SDS011;16960;49.404;8.248;2023-01-23T02:08:31;1.87;;;1.77;;
30147;SDS011;16960;49.404;8.248;2023-01-23T02:11:02;1.60;;;1.50;;
30147;SDS011;16960;49.404;8.248;2023-01-23T02:13:31;2.00;;;1.73;;
30147;SDS011;16960;49.404;8.248;2023-01-23T02:16:02;2.00;;;1.90;;
30147;SDS011;16960;49.404;8.248;2023-01-23T02:18:31;1.60;;;1.50;;
30147;SDS011;16960;49.404;8.248;2023-01-23T02:21:02;1.80;;;1.70;;
30147;SDS011;16960;49.404;8.248;2023-01-23T02:23:34;1.83;;;1.73;;
30147;SDS011;16960;49.404;8.248;2023-01-23T02:26:15;1.90;;;1.80;;
30147;SDS011;16960;49.404;8.248;2023-01-23T02:28:44;2.20;;;2.07;;
30147;SDS011;16960;49.404;8.248;2023-01-23T02:31:12;1.50;;;1.40;;
30147;SDS011;16960;49.404;8.248;2023-01-23T02:33:42;1.40;;;1.30;;
30147;SDS011;16960;49.404;8.248;2023-01-23T02:36:11;1.57;;;1.47;;
30147;SDS011;16960;49.404;8.248;2023-01-23T02:38:41;1.50;;;1.40;;
30147;SDS011;16960;49.404;8.248;2023-01-23T02:41:16;1.90;;;1.73;;
30147;SDS011;16960;49.404;8.248;2023-01-23T02:43:46;1.97;;;1.77;;
30147;SDS011;16960;49.404;8.248;2023-01-23T02:46:15;1.90;;;1.70;;
30147;SDS011;16960;49.404;8.248;2023-01-23T02:48:44;1.87;;;1.77;;
30147;SDS011;16960;49.404;8.248;2023-01-23T02:51:11;1.50;;;1.40;;
30147;SDS011;16960;49.404;8.248;2023-01-23T02:53:41;1.80;;;1.70;;
30147;SDS011;16960;49.404;8.248;2023-01-23T02:56:08;1.50;;;1.40;;
30147;SDS011;16960;49.404;8.248;2023-01-23T02:58:36;1.60;;;1.50;;
30147;SDS011;16960;49.404;8.248;2023-01-23T03:01:20;2.10;;;1.90;;
30147;SDS011;16960;49.404;8.248;2023-01-23T03:03:48;1.70;;;1.60;;
30147;SDS011;16960;49.404;8.248;2023-01-23T03:06:17;1.80;;;1.70;;
30147;SDS011;16960;49.404;8.248;2023-01-23T03:08:45;1.40;;;1.30;;
30147;SDS011;16960;49.404;8.248;2023-01-23T03:11:14;2.23;;;2.07;;
30147;SDS011;16960;49.404;8.248;2023-01-23T03:13:43;1.50;;;1.40;;
30147;SDS011;16960;49.404;8.248;2023-01-23T03:16:10;1.60;;;1.50;;
30147;SDS011;16960;49.404;8.248;2023-01-23T03:18:37;1.63;;;1.53;;
30147;SDS011;16960;49.404;8.248;2023-01-23T03:21:04;1.70;;;1.60;;
30147;SDS011;16960;49.404;8.248;2023-01-23T03:23:32;1.70;;;1.60;;
30147;SDS011;16960;49.404;8.248;2023-01-23T03:25:59;1.70;;;1.60;;
30147;SDS011;16960;49.404;8.248;2023-01-23T03:28:27;1.90;;;1.80;;
30147;SDS011;16960;49.404;8.248;2023-01-23T03:31:13;1.53;;;1.43;;
30147;SDS011;16960;49.404;8.248;2023-01-23T03:33:41;2.20;;;1.90;;
30147;SDS011;16960;49.404;8.248;2023-01-23T03:36:09;1.60;;;1.50;;
30147;SDS011;16960;49.404;8.248;2023-01-23T03:38:36;1.90;;;1.80;;
30147;SDS011;16960;49.404;8.248;2023-01-23T03:41:23;1.60;;;1.50;;
30147;SDS011;16960;49.404;8.248;2023-01-23T03:43:49;1.50;;;1.40;;
30147;SDS011;16960;49.404;8.248;2023-01-23T03:46:18;1.97;;;1.57;;
30147;SDS011;16960;49.404;8.248;2023-01-23T03:48:44;1.60;;;1.50;;
30147;SDS011;16960;49.404;8.248;2023-01-23T03:51:11;1.63;;;1.53;;
30147;SDS011;16960;49.404;8.248;2023-01-23T03:53:38;2.10;;;2.00;;
30147;SDS011;16960;49.404;8.248;2023-01-23T03:56:05;1.50;;;1.40;;
30147;SDS011;16960;49.404;8.248;2023-01-23T03:58:33;1.43;;;1.33;;
30147;SDS011;16960;49.404;8.248;2023-01-23T04:00:59;1.63;;;1.53;;
30147;SDS011;16960;49.404;8.248;2023-01-23T04:03:31;1.70;;;1.60;;
30147;SDS011;16960;49.404;8.248;2023-01-23T04:05:58;1.77;;;1.67;;
30147;SDS011;16960;49.404;8.248;2023-01-23T04:08:25;1.73;;;1.63;;
30147;SDS011;16960;49.404;8.248;2023-01-23T04:10:59;1.80;;;1.70;;
30147;SDS011;16960;49.404;8.248;2023-01-23T04:13:27;1.90;;;1.60;;
30147;SDS011;16960;49.404;8.248;2023-01-23T04:15:54;2.00;;;1.90;;
30147;SDS011;16960;49.404;8.248;2023-01-23T04:18:21;1.73;;;1.63;;
30147;SDS011;16960;49.404;8.248;2023-01-23T04:20:49;1.77;;;1.67;;
30147;SDS011;16960;49.404;8.248;2023-01-23T04:23:16;1.80;;;1.50;;
30147;SDS011;16960;49.404;8.248;2023-01-23T04:25:43;1.83;;;1.73;;
30147;SDS011;16960;49.404;8.248;2023-01-23T04:28:10;1.60;;;1.50;;
30147;SDS011;16960;49.404;8.248;2023-01-23T04:30:37;1.67;;;1.57;;
30147;SDS011;16960;49.404;8.248;2023-01-23T04:33:04;2.80;;;1.80;;
30147;SDS011;16960;49.404;8.248;2023-01-23T04:35:31;1.60;;;1.50;;
30147;SDS011;16960;49.404;8.248;2023-01-23T04:38:00;2.00;;;1.90;;
30147;SDS011;16960;49.404;8.248;2023-01-23T04:40:26;1.80;;;1.70;;
30147;SDS011;16960;49.404;8.248;2023-01-23T04:42:53;1.50;;;1.40;;
30147;SDS011;16960;49.404;8.248;2023-01-23T04:45:20;1.43;;;1.33;;
30147;SDS011;16960;49.404;8.248;2023-01-23T04:47:47;2.07;;;1.90;;
30147;SDS011;16960;49.404;8.248;2023-01-23T04:50:15;1.63;;;1.53;;
30147;SDS011;16960;49.404;8.248;2023-01-23T04:52:41;1.50;;;1.40;;
30147;SDS011;16960;49.404;8.248;2023-01-23T04:55:10;1.60;;;1.50;;
30147;SDS011;16960;49.404;8.248;2023-01-23T04:57:37;1.97;;;1.87;;
30147;SDS011;16960;49.404;8.248;2023-01-23T05:00:04;2.00;;;1.90;;
30147;SDS011;16960;49.404;8.248;2023-01-23T05:02:32;1.60;;;1.50;;
30147;SDS011;16960;49.404;8.248;2023-01-23T05:04:59;1.67;;;1.57;;
30147;SDS011;16960;49.404;8.248;2023-01-23T05:07:26;3.40;;;2.37;;
30147;SDS011;16960;49.404;8.248;2023-01-23T05:09:53;1.93;;;1.83;;
30147;SDS011;16960;49.404;8.248;2023-01-23T05:12:21;1.87;;;1.73;;
30147;SDS011;16960;49.404;8.248;2023-01-23T05:14:48;1.90;;;1.80;;
30147;SDS011;16960;49.404;8.248;2023-01-23T05:17:15;1.77;;;1.67;;
30147;SDS011;16960;49.404;8.248;2023-01-23T05:19:42;1.60;;;1.50;;
30147;SDS011;16960;49.404;8.248;2023-01-23T05:22:09;1.80;;;1.70;;
30147;SDS011;16960;49.404;8.248;2023-01-23T05:24:36;2.13;;;1.93;;
30147;SDS011;16960;49.404;8.248;2023-01-23T05:27:02;1.83;;;1.70;;
30147;SDS011;16960;49.404;8.248;2023-01-23T05:29:31;2.00;;;1.70;;
30147;SDS011;16960;49.404;8.248;2023-01-23T05:31:58;1.77;;;1.67;;
30147;SDS011;16960;49.404;8.248;2023-01-23T05:34:25;1.60;;;1.47;;
30147;SDS011;16960;49.404;8.248;2023-01-23T05:36:52;2.37;;;2.00;;
30147;SDS011;16960;49.404;8.248;2023-01-23T05:39:19;1.37;;;1.27;;
30147;SDS011;16960;49.404;8.248;2023-01-23T05:41:46;1.70;;;1.60;;
30147;SDS011;16960;49.404;8.248;2023-01-23T05:44:13;1.60;;;1.50;;
30147;SDS011;16960;49.404;8.248;2023-01-23T05:46:41;1.90;;;1.80;;
30147;SDS011;16960;49.404;8.248;2023-01-23T05:49:08;1.70;;;1.60;;
30147;SDS011;16960;49.404;8.248;2023-01-23T05:51:35;1.80;;;1.70;;
30147;SDS011;16960;49.404;8.248;2023-01-23T05:54:02;1.60;;;1.50;;
30147;SDS011;16960;49.404;8.248;2023-01-23T05:56:29;1.63;;;1.43;;
30147;SDS011;16960;49.404;8.248;2023-01-23T05:58:56;1.87;;;1.77;;
30147;SDS011;16960;49.404;8.248;2023-01-23T06:01:23;2.00;;;1.90;;
30147;SDS011;16960;49.404;8.248;2023-01-23T06:03:51;1.93;;;1.83;;
30147;SDS011;16960;49.404;8.248;2023-01-23T06:06:18;1.93;;;1.73;;
30147;SDS011;16960;49.404;8.248;2023-01-23T06:08:45;1.60;;;1.50;;
30147;SDS011;16960;49.404;8.248;2023-01-23T06:11:12;1.77;;;1.67;;
30147;SDS011;16960;49.404;8.248;2023-01-23T06:13:39;1.70;;;1.60;;
30147;SDS011;16960;49.404;8.248;2023-01-23T06:16:06;1.93;;;1.73;;
30147;SDS011;16960;49.404;8.248;2023-01-23T06:18:33;1.80;;;1.70;;
30147;SDS011;16960;49.404;8.248;2023-01-23T06:21:02;1.57;;;1.47;;
30147;SDS011;16960;49.404;8.248;2023-01-23T06:23:30;1.77;;;1.67;;
30147;SDS011;16960;49.404;8.248;2023-01-23T06:25:58;2.20;;;1.93;;
30147;SDS011;16960;49.404;8.248;2023-01-23T06:28:25;1.93;;;1.80;;
30147;SDS011;16960;49.404;8.248;2023-01-23T06:30:52;1.90;;;1.80;;
30147;SDS011;16960;49.404;8.248;2023-01-23T06:33:19;1.70;;;1.60;;
30147;SDS011;16960;49.404;8.248;2023-01-23T06:35:46;1.57;;;1.47;;
30147;SDS011;16960;49.404;8.248;2023-01-23T06:38:15;1.47;;;1.37;;
30147;SDS011;16960;49.404;8.248;2023-01-23T06:40:42;1.60;;;1.40;;
30147;SDS011;16960;49.404;8.248;2023-01-23T06:43:09;1.70;;;1.60;;
30147;SDS011;16960;49.404;8.248;2023-01-23T06:45:36;1.60;;;1.50;;
30147;SDS011;16960;49.404;8.248;2023-01-23T06:48:03;3.90;;;1.97;;
30147;SDS011;16960;49.404;8.248;2023-01-23T06:50:31;4.17;;;1.77;;
30147;SDS011;16960;49.404;8.248;2023-01-23T06:52:57;4.00;;;1.80;;
30147;SDS011;16960;49.404;8.248;2023-01-23T06:55:26;3.20;;;2.00;;
30147;SDS011;16960;49.404;8.248;2023-01-23T06:57:52;3.33;;;2.20;;
30147;SDS011;16960;49.404;8.248;2023-01-23T07:00:19;4.00;;;2.20;;
30147;SDS011;16960;49.404;8.248;2023-01-23T07:02:47;2.33;;;2.10;;
30147;SDS011;16960;49.404;8.248;2023-01-23T07:05:14;3.40;;;2.20;;
30147;SDS011;16960;49.404;8.248;2023-01-23T07:07:41;7.97;;;2.43;;
30147;SDS011;16960;49.404;8.248;2023-01-23T07:10:08;2.73;;;2.40;;
30147;SDS011;16960;49.404;8.248;2023-01-23T07:12:38;2.73;;;2.00;;
30147;SDS011;16960;49.404;8.248;2023-01-23T07:15:05;3.00;;;2.70;;
30147;SDS011;16960;49.404;8.248;2023-01-23T07:17:33;5.57;;;2.93;;
30147;SDS011;16960;49.404;8.248;2023-01-23T07:20:00;2.83;;;2.43;;
30147;SDS011;16960;49.404;8.248;2023-01-23T07:22:27;2.80;;;2.60;;
30147;SDS011;16960;49.404;8.248;2023-01-23T07:24:54;3.20;;;2.80;;
30147;SDS011;16960;49.404;8.248;2023-01-23T07:27:21;2.87;;;2.57;;
30147;SDS011;16960;49.404;8.248;2023-01-23T07:29:49;2.50;;;2.30;;
30147;SDS011;16960;49.404;8.248;2023-01-23T07:32:16;2.60;;;2.40;;
30147;SDS011;16960;49.404;8.248;2023-01-23T07:34:43;2.90;;;2.40;;
30147;SDS011;16960;49.404;8.248;2023-01-23T07:37:10;2.53;;;2.33;;
30147;SDS011;16960;49.404;8.248;2023-01-23T07:39:37;3.13;;;2.93;;
30147;SDS011;16960;49.404;8.248;2023-01-23T07:42:04;2.70;;;2.50;;
30147;SDS011;16960;49.404;8.248;2023-01-23T07:44:31;2.80;;;2.60;;
30147;SDS011;16960;49.404;8.248;2023-01-23T07:46:59;5.13;;;2.47;;
30147;SDS011;16960;49.404;8.248;2023-01-23T07:49:26;2.50;;;2.30;;
30147;SDS011;16960;49.404;8.248;2023-01-23T07:51:53;2.70;;;2.50;;
30147;SDS011;16960;49.404;8.248;2023-01-23T07:54:20;2.33;;;2.13;;
30147;SDS011;16960;49.404;8.248;2023-01-23T07:56:48;4.47;;;2.87;;
30147;SDS011;16960;49.404;8.248;2023-01-23T07:59:15;2.53;;;2.33;;
30147;SDS011;16960;49.404;8.248;2023-01-23T08:01:42;3.47;;;3.17;;
30147;SDS011;16960;49.404;8.248;2023-01-23T08:04:10;3.00;;;2.80;;
30147;SDS011;16960;49.404;8.248;2023-01-23T08:06:37;3.13;;;2.93;;
30147;SDS011;16960;49.404;8.248;2023-01-23T08:09:04;2.80;;;2.60;;
30147;SDS011;16960;49.404;8.248;2023-01-23T08:11:31;3.37;;;2.57;;
30147;SDS011;16960;49.404;8.248;2023-01-23T08:13:58;4.33;;;3.20;;
30147;SDS011;16960;49.404;8.248;2023-01-23T08:16:25;6.97;;;3.00;;
30147;SDS011;16960;49.404;8.248;2023-01-23T08:18:52;2.97;;;2.67;;
30147;SDS011;16960;49.404;8.248;2023-01-23T08:21:20;3.23;;;2.93;;
30147;SDS011;16960;49.404;8.248;2023-01-23T08:23:47;3.53;;;2.60;;
30147;SDS011;16960;49.404;8.248;2023-01-23T08:26:15;3.00;;;2.30;;
30147;SDS011;16960;49.404;8.248;2023-01-23T08:28:43;2.50;;;2.30;;
30147;SDS011;16960;49.404;8.248;2023-01-23T08:31:11;3.87;;;2.57;;
30147;SDS011;16960;49.404;8.248;2023-01-23T08:33:39;2.53;;;2.33;;
30147;SDS011;16960;49.404;8.248;2023-01-23T08:36:06;2.97;;;2.00;;
30147;SDS011;16960;49.404;8.248;2023-01-23T08:38:36;2.70;;;1.90;;
30147;SDS011;16960;49.404;8.248;2023-01-23T08:41:03;2.70;;;2.50;;
30147;SDS011;16960;49.404;8.248;2023-01-23T08:43:31;2.43;;;2.20;;
30147;SDS011;16960;49.404;8.248;2023-01-23T08:45:58;2.63;;;2.43;;
30147;SDS011;16960;49.404;8.248;2023-01-23T08:48:25;2.70;;;2.10;;
30147;SDS011;16960;49.404;8.248;2023-01-23T08:50:57;2.20;;;2.00;;
30147;SDS011;16960;49.404;8.248;2023-01-23T08:53:26;1.93;;;1.73;;
30147;SDS011;16960;49.404;8.248;2023-01-23T08:55:57;2.17;;;2.00;;
30147;SDS011;16960;49.404;8.248;2023-01-23T08:58:25;2.30;;;2.10;;
30147;SDS011;16960;49.404;8.248;2023-01-23T09:00:52;2.90;;;2.10;;
30147;SDS011;16960;49.404;8.248;2023-01-23T09:03:19;2.40;;;2.20;;
30147;SDS011;16960;49.404;8.248;2023-01-23T09:05:46;2.13;;;1.93;;
30147;SDS011;16960;49.404;8.248;2023-01-23T09:08:13;2.07;;;1.87;;
30147;SDS011;16960;49.404;8.248;2023-01-23T09:10:40;2.70;;;2.50;;
30147;SDS011;16960;49.404;8.248;2023-01-23T09:13:08;2.10;;;1.90;;
30147;SDS011;16960;49.404;8.248;2023-01-23T09:15:37;2.33;;;1.97;;
30147;SDS011;16960;49.404;8.248;2023-01-23T09:18:04;1.87;;;1.77;;
30147;SDS011;16960;49.404;8.248;2023-01-23T09:20:31;2.00;;;1.90;;
30147;SDS011;16960;49.404;8.248;2023-01-23T09:22:58;2.27;;;2.07;;
30147;SDS011;16960;49.404;8.248;2023-01-23T09:25:25;4.60;;;2.40;;
30147;SDS011;16960;49.404;8.248;2023-01-23T09:27:55;2.10;;;1.90;;
30147;SDS011;16960;49.404;8.248;2023-01-23T09:30:23;3.43;;;2.20;;
30147;SDS011;16960;49.404;8.248;2023-01-23T09:32:51;2.70;;;2.50;;
30147;SDS011;16960;49.404;8.248;2023-01-23T09:35:19;2.30;;;1.97;;
30147;SDS011;16960;49.404;8.248;2023-01-23T09:37:47;2.40;;;2.20;;
30147;SDS011;16960;49.404;8.248;2023-01-23T09:40:28;2.00;;;1.90;;
30147;SDS011;16960;49.404;8.248;2023-01-23T09:42:58;2.30;;;2.10;;
30147;SDS011;16960;49.404;8.248;2023-01-23T09:45:29;2.03;;;1.73;;
30147;SDS011;16960;49.404;8.248;2023-01-23T09:47:59;2.20;;;2.10;;
30147;SDS011;16960;49.404;8.248;2023-01-23T09:50:39;2.30;;;1.90;;
30147;SDS011;16960;49.404;8.248;2023-01-23T09:53:18;3.10;;;1.90;;
30147;SDS011;16960;49.404;8.248;2023-01-23T09:55:48;2.33;;;2.13;;
30147;SDS011;16960;49.404;8.248;2023-01-23T09:58:23;2.57;;;2.13;;
30147;SDS011;16960;49.404;8.248;2023-01-23T10:00:54;2.33;;;2.13;;
30147;SDS011;16960;49.404;8.248;2023-01-23T10:03:21;2.40;;;2.20;;
30147;SDS011;16960;49.404;8.248;2023-01-23T10:05:55;3.27;;;2.20;;
30147;SDS011;16960;49.404;8.248;2023-01-23T10:08:31;1.80;;;1.70;;
30147;SDS011;16960;49.404;8.248;2023-01-23T10:11:04;2.37;;;2.17;;
30147;SDS011;16960;49.404;8.248;2023-01-23T10:13:46;3.13;;;2.17;;
30147;SDS011;16960;49.404;8.248;2023-01-23T10:16:43;1.73;;;1.60;;
30147;SDS011;16960;49.404;8.248;2023-01-23T10:19:36;6.53;;;1.70;;
30147;SDS011;16960;49.404;8.248;2023-01-23T10:22:17;3.33;;;1.80;;
30147;SDS011;16960;49.404;8.248;2023-01-23T10:24:57;2.10;;;2.00;;
30147;SDS011;16960;49.404;8.248;2023-01-23T10:27:30;2.10;;;2.00;;
30147;SDS011;16960;49.404;8.248;2023-01-23T10:30:01;2.43;;;2.23;;
30147;SDS011;16960;49.404;8.248;2023-01-23T10:32:36;2.27;;;2.07;;
30147;SDS011;16960;49.404;8.248;2023-01-23T10:35:10;2.40;;;2.20;;
30147;SDS011;16960;49.404;8.248;2023-01-23T10:37:42;2.20;;;2.00;;
30147;SDS011;16960;49.404;8.248;2023-01-23T10:40:15;1.80;;;1.70;;
30147;SDS011;16960;49.404;8.248;2023-01-23T10:43:02;2.67;;;2.47;;
30147;SDS011;16960;49.404;8.248;2023-01-23T10:45:34;1.87;;;1.70;;
30147;SDS011;16960;49.404;8.248;2023-01-23T10:48:04;4.27;;;1.87;;
30147;SDS011;16960;49.404;8.248;2023-01-23T10:50:54;2.30;;;1.83;;
30147;SDS011;16960;49.404;8.248;2023-01-23T10:53:22;2.60;;;2.23;;
30147;SDS011;16960;49.404;8.248;2023-01-23T10:55:50;2.40;;;2.20;;
30147;SDS011;16960;49.404;8.248;2023-01-23T10:58:27;1.90;;;1.80;;
30147;SDS011;16960;49.404;8.248;2023-01-23T11:00:58;2.50;;;1.80;;
30147;SDS011;16960;49.404;8.248;2023-01-23T11:03:28;2.40;;;2.10;;
30147;SDS011;16960;49.404;8.248;2023-01-23T11:06:00;1.77;;;1.67;;
30147;SDS011;16960;49.404;8.248;2023-01-23T11:08:29;1.70;;;1.60;;
30147;SDS011;16960;49.404;8.248;2023-01-23T11:11:15;2.53;;;2.33;;
30147;SDS011;16960;49.404;8.248;2023-01-23T11:13:48;2.03;;;1.83;;
30147;SDS011;16960;49.404;8.248;2023-01-23T11:16:16;2.53;;;2.33;;
30147;SDS011;16960;49.404;8.248;2023-01-23T11:18:48;1.70;;;1.60;;
30147;SDS011;16960;49.404;8.248;2023-01-23T11:21:19;2.03;;;1.93;;
30147;SDS011;16960;49.404;8.248;2023-01-23T11:23:46;2.03;;;1.83;;
30147;SDS011;16960;49.404;8.248;2023-01-23T11:28:56;2.23;;;2.03;;
30147;SDS011;16960;49.404;8.248;2023-01-23T11:31:23;2.63;;;1.80;;
30147;SDS011;16960;49.404;8.248;2023-01-23T11:33:55;2.30;;;2.10;;
30147;SDS011;16960;49.404;8.248;2023-01-23T11:36:32;2.93;;;2.07;;
30147;SDS011;16960;49.404;8.248;2023-01-23T11:39:08;2.60;;;2.03;;
30147;SDS011;16960;49.404;8.248;2023-01-23T11:41:41;2.20;;;2.00;;
30147;SDS011;16960;49.404;8.248;2023-01-23T11:44:12;4.70;;;2.10;;
30147;SDS011;16960;49.404;8.248;2023-01-23T11:46:49;2.17;;;1.97;;
30147;SDS011;16960;49.404;8.248;2023-01-23T11:49:52;2.20;;;2.00;;
30147;SDS011;16960;49.404;8.248;2023-01-23T11:52:43;2.00;;;1.90;;
30147;SDS011;16960;49.404;8.248;2023-01-23T11:55:19;2.00;;;1.80;;
30147;SDS011;16960;49.404;8.248;2023-01-23T11:58:04;2.37;;;2.10;;
30147;SDS011;16960;49.404;8.248;2023-01-23T12:00:41;2.00;;;1.80;;
30147;SDS011;16960;49.404;8.248;2023-01-23T12:03:25;2.37;;;2.13;;
30147;SDS011;16960;49.404;8.248;2023-01-23T12:06:11;2.90;;;2.37;;
30147;SDS011;16960;49.404;8.248;2023-01-23T12:08:56;2.40;;;2.20;;
30147;SDS011;16960;49.404;8.248;2023-01-23T12:11:31;2.40;;;2.20;;
30147;SDS011;16960;49.404;8.248;2023-01-23T12:14:03;2.30;;;2.10;;
30147;SDS011;16960;49.404;8.248;2023-01-23T12:16:49;2.30;;;2.10;;
30147;SDS011;16960;49.404;8.248;2023-01-23T12:19:32;3.20;;;1.80;;
30147;SDS011;16960;49.404;8.248;2023-01-23T12:22:09;3.03;;;2.60;;
30147;SDS011;16960;49.404;8.248;2023-01-23T12:24:46;2.67;;;2.47;;
30147;SDS011;16960;49.404;8.248;2023-01-23T12:27:23;1.70;;;1.60;;
30147;SDS011;16960;49.404;8.248;2023-01-23T12:30:10;3.37;;;1.90;;
30147;SDS011;16960;49.404;8.248;2023-01-23T12:33:07;1.80;;;1.70;;
30147;SDS011;16960;49.404;8.248;2023-01-23T12:35:51;2.60;;;2.40;;
30147;SDS011;16960;49.404;8.248;2023-01-23T12:38:29;2.87;;;2.27;;
30147;SDS011;16960;49.404;8.248;2023-01-23T12:41:05;2.63;;;2.03;;
30147;SDS011;16960;49.404;8.248;2023-01-23T12:43:39;2.10;;;2.00;;
30147;SDS011;16960;49.404;8.248;2023-01-23T12:46:14;3.00;;;2.00;;
30147;SDS011;16960;49.404;8.248;2023-01-23T12:48:45;2.80;;;2.37;;
30147;SDS011;16960;49.404;8.248;2023-01-23T12:51:16;2.40;;;2.20;;
30147;SDS011;16960;49.404;8.248;2023-01-23T12:53:47;2.73;;;2.30;;
30147;SDS011;16960;49.404;8.248;2023-01-23T12:56:18;2.03;;;1.87;;
30147;SDS011;16960;49.404;8.248;2023-01-23T12:58:51;2.20;;;2.00;;
30147;SDS011;16960;49.404;8.248;2023-01-23T13:01:24;4.10;;;2.60;;
30147;SDS011;16960;49.404;8.248;2023-01-23T13:04:08;2.73;;;2.53;;
30147;SDS011;16960;49.404;8.248;2023-01-23T13:09:44;2.60;;;2.33;;
30147;SDS011;16960;49.404;8.248;2023-01-23T13:12:26;5.07;;;2.60;;
30147;SDS011;16960;49.404;8.248;2023-01-23T13:15:19;4.37;;;2.10;;
30147;SDS011;16960;49.404;8.248;2023-01-23T13:17:57;2.50;;;2.30;;
30147;SDS011;16960;49.404;8.248;2023-01-23T13:20:27;2.17;;;1.93;;
30147;SDS011;16960;49.404;8.248;2023-01-23T13:23:23;3.20;;;2.77;;
30147;SDS011;16960;49.404;8.248;2023-01-23T13:28:57;2.30;;;2.10;;
30147;SDS011;16960;49.404;8.248;2023-01-23T13:31:41;2.43;;;2.23;;
30147;SDS011;16960;49.404;8.248;2023-01-23T13:40:15;3.17;;;2.57;;
30147;SDS011;16960;49.404;8.248;2023-01-23T13:42:44;2.60;;;2.17;;
30147;SDS011;16960;49.404;8.248;2023-01-23T13:45:22;3.27;;;2.10;;
30147;SDS011;16960;49.404;8.248;2023-01-23T13:47:56;2.73;;;2.53;;
30147;SDS011;16960;49.404;8.248;2023-01-23T13:51:00;2.30;;;2.10;;
30147;SDS011;16960;49.404;8.248;2023-01-23T13:53:33;2.60;;;2.40;;
30147;SDS011;16960;49.404;8.248;2023-01-23T13:56:17;2.37;;;2.17;;
30147;SDS011;16960;49.404;8.248;2023-01-23T13:59:15;4.83;;;2.67;;
30147;SDS011;16960;49.404;8.248;2023-01-23T14:01:55;2.87;;;2.33;;
30147;SDS011;16960;49.404;8.248;2023-01-23T14:04:51;2.30;;;2.10;;
30147;SDS011;16960;49.404;8.248;2023-01-23T14:07:38;2.63;;;2.43;;
30147;SDS011;16960;49.404;8.248;2023-01-23T14:10:14;1.90;;;1.70;;
30147;SDS011;16960;49.404;8.248;2023-01-23T14:12:44;2.20;;;2.00;;
30147;SDS011;16960;49.404;8.248;2023-01-23T14:15:20;2.53;;;2.33;;
30147;SDS011;16960;49.404;8.248;2023-01-23T14:18:18;2.70;;;2.50;;
30147;SDS011;16960;49.404;8.248;2023-01-23T14:20:53;2.50;;;2.30;;
30147;SDS011;16960;49.404;8.248;2023-01-23T14:23:27;2.53;;;2.33;;
30147;SDS011;16960;49.404;8.248;2023-01-23T14:25:59;2.33;;;2.20;;
30147;SDS011;16960;49.404;8.248;2023-01-23T14:28:27;2.90;;;2.60;;
30147;SDS011;16960;49.404;8.248;2023-01-23T14:30:56;2.90;;;2.70;;
30147;SDS011;16960;49.404;8.248;2023-01-23T14:33:25;2.27;;;2.07;;
30147;SDS011;16960;49.404;8.248;2023-01-23T14:35:53;2.67;;;2.47;;
30147;SDS011;16960;49.404;8.248;2023-01-23T14:38:28;2.70;;;2.50;;
30147;SDS011;16960;49.404;8.248;2023-01-23T14:40:57;4.30;;;2.60;;
30147;SDS011;16960;49.404;8.248;2023-01-23T14:43:28;3.10;;;2.30;;
30147;SDS011;16960;49.404;8.248;2023-01-23T14:45:58;2.47;;;2.27;;
30147;SDS011;16960;49.404;8.248;2023-01-23T14:48:30;2.20;;;2.00;;
30147;SDS011;16960;49.404;8.248;2023-01-23T14:51:04;2.23;;;2.03;;
30147;SDS011;16960;49.404;8.248;2023-01-23T14:53:37;2.63;;;2.43;;
30147;SDS011;16960;49.404;8.248;2023-01-23T14:56:06;2.20;;;2.00;;
30147;SDS011;16960;49.404;8.248;2023-01-23T14:58:35;2.93;;;2.33;;
30147;SDS011;16960;49.404;8.248;2023-01-23T15:01:03;2.70;;;2.50;;
30147;SDS011;16960;49.404;8.248;2023-01-23T15:03:35;4.70;;;2.73;;
30147;SDS011;16960;49.404;8.248;2023-01-23T15:06:05;2.53;;;2.33;;
30147;SDS011;16960;49.404;8.248;2023-01-23T15:08:35;2.73;;;2.53;;
30147;SDS011;16960;49.404;8.248;2023-01-23T15:11:02;2.90;;;2.70;;
30147;SDS011;16960;49.404;8.248;2023-01-23T15:13:33;3.20;;;2.40;;
30147;SDS011;16960;49.404;8.248;2023-01-23T15:16:09;2.30;;;2.10;;
30147;SDS011;16960;49.404;8.248;2023-01-23T15:18:44;2.73;;;2.30;;
30147;SDS011;16960;49.404;8.248;2023-01-23T15:21:24;5.87;;;2.43;;
30147;SDS011;16960;49.404;8.248;2023-01-23T15:26:57;2.10;;;2.00;;
30147;SDS011;16960;49.404;8.248;2023-01-23T15:29:27;2.73;;;2.53;;
30147;SDS011;16960;49.404;8.248;2023-01-23T15:31:55;2.20;;;2.00;;